| time (UTC) | temp F | wind direction | speed knots | gust knots | rain 1hr in | rain 24hr in | rain mn in | humidity % | barometer mb |
| 20260508012933 | 46 | 301 | 0.0 | 0.0 | 0.00 | 0.20 | 0.13 | 77 | 1004.8 |
| 20260508011434 | 46 | 299 | 0.0 | 0.0 | 0.00 | 0.20 | 0.13 | 77 | 1004.6 |
| 20260508005932 | 47 | 289 | 0.0 | 0.0 | 0.00 | 0.20 | 0.13 | 74 | 1004.8 |
| 20260508004432 | 47 | 284 | 0.0 | 0.0 | 0.00 | 0.20 | 0.13 | 68 | 1004.8 |
| 20260508002932 | 48 | 285 | 0.0 | 0.0 | 0.00 | 0.20 | 0.13 | 75 | 1004.9 |
| 20260508001433 | 47 | 309 | 0.0 | 0.0 | 0.00 | 0.20 | 0.13 | 70 | 1004.9 |
| 20260507235933 | 48 | 288 | 0.0 | 0.0 | 0.00 | 0.20 | 0.13 | 71 | 1004.8 |
| 20260507234432 | 46 | 292 | 0.0 | 0.0 | 0.00 | 0.20 | 0.13 | 78 | 1004.8 |
| 20260507232933 | 44 | 293 | 0.0 | 0.0 | 0.00 | 0.20 | 0.13 | 83 | 1004.8 |
| 20260507231432 | 45 | 300 | 0.0 | 0.0 | 0.00 | 0.20 | 0.13 | 84 | 1004.7 |
| 20260507225933 | 46 | 296 | 0.0 | 0.0 | 0.00 | 0.20 | 0.13 | 84 | 1004.7 |
| 20260507224432 | 46 | 287 | 0.0 | 0.0 | 0.00 | 0.20 | 0.13 | 80 | 1004.8 |
| 20260507222933 | 46 | 288 | 0.0 | 0.0 | 0.00 | 0.20 | 0.13 | 79 | 1005.0 |
| 20260507221432 | 46 | 289 | 0.0 | 0.0 | 0.00 | 0.20 | 0.13 | 78 | 1005.1 |
| 20260507215933 | 46 | 280 | 0.0 | 0.0 | 0.00 | 0.20 | 0.13 | 81 | 1005.1 |
| 20260507214432 | 46 | 278 | 0.0 | 0.0 | 0.00 | 0.20 | 0.13 | 79 | 1005.1 |
| 20260507212933 | 46 | 277 | 0.0 | 0.0 | 0.00 | 0.20 | 0.13 | 81 | 1005.4 |
| 20260507211433 | 45 | 281 | 0.0 | 0.0 | 0.00 | 0.20 | 0.13 | 87 | 1005.6 |
| 20260507205933 | 45 | 266 | 0.0 | 0.0 | 0.00 | 0.20 | 0.13 | 88 | 1005.6 |
| 20260507204433 | 44 | 245 | 0.0 | 0.0 | 0.00 | 0.20 | 0.13 | 91 | 1005.7 |
| 20260507202933 | 43 | 277 | 0.0 | 0.0 | 0.00 | 0.20 | 0.13 | 92 | 1005.5 |
| 20260507201433 | 43 | 263 | 0.0 | 0.0 | 0.00 | 0.20 | 0.13 | 92 | 1005.5 |
| 20260507195933 | 43 | 268 | 0.0 | 0.0 | 0.00 | 0.20 | 0.13 | 91 | 1005.6 |
| 20260507194433 | 44 | 269 | 0.0 | 0.0 | 0.00 | 0.20 | 0.13 | 87 | 1005.5 |
| 20260507192933 | 43 | 261 | 0.0 | 0.0 | 0.00 | 0.20 | 0.13 | 89 | 1005.4 |
| 20260507191433 | 43 | 303 | 0.0 | 0.0 | 0.00 | 0.20 | 0.13 | 88 | 1005.3 |
| 20260507185933 | 43 | 258 | 0.0 | 0.0 | 0.00 | 0.20 | 0.13 | 91 | 1005.5 |
| 20260507184433 | 42 | 284 | 0.0 | 0.0 | 0.00 | 0.20 | 0.13 | 93 | 1005.6 |
| 20260507182933 | 43 | 309 | 0.0 | 0.0 | 0.00 | 0.20 | 0.13 | 90 | 1005.5 |
| 20260507181433 | 42 | 320 | 0.0 | 0.0 | 0.00 | 0.20 | 0.13 | 93 | 1005.8 |
| 20260507175934 | 41 | 305 | 0.0 | 0.0 | 0.00 | 0.20 | 0.13 | 95 | 1005.7 |
| 20260507174433 | 41 | 323 | 0.0 | 0.0 | 0.00 | 0.20 | 0.13 | 94 | 1005.7 |
| 20260507172933 | 40 | 320 | 0.0 | 0.0 | 0.00 | 0.20 | 0.13 | 96 | 1005.5 |
| 20260507171433 | 40 | 299 | 0.0 | 0.0 | 0.00 | 0.20 | 0.13 | 96 | 1005.6 |
| 20260507165933 | 40 | 314 | 0.0 | 0.0 | 0.00 | 0.20 | 0.13 | 96 | 1005.5 |
| 20260507161433 | 39 | 285 | 0.0 | 0.0 | 0.00 | 0.20 | 0.13 | 95 | 1005.9 |
| 20260507155933 | 39 | 301 | 0.0 | 0.0 | 0.00 | 0.20 | 0.13 | 95 | 1005.9 |
| 20260507154433 | 39 | 283 | 0.0 | 0.0 | 0.00 | 0.20 | 0.13 | 95 | 1005.7 |
| 20260507152933 | 39 | 300 | 0.0 | 0.0 | 0.00 | 0.20 | 0.13 | 95 | 1005.6 |
| 20260507151433 | 39 | 312 | 0.0 | 0.0 | 0.01 | 0.20 | 0.13 | 94 | 1005.4 |
| 20260507145935 | 39 | 302 | 0.0 | 0.0 | 0.01 | 0.20 | 0.13 | 94 | 1005.4 |
| 20260507144433 | 38 | 295 | 0.0 | 0.0 | 0.01 | 0.20 | 0.13 | 93 | 1005.4 |
| 20260507142933 | 38 | 289 | 0.0 | 0.0 | 0.05 | 0.20 | 0.13 | 92 | 1005.2 |
| 20260507141433 | 39 | 294 | 0.0 | 0.0 | 0.05 | 0.19 | 0.12 | 89 | 1005.4 |
| 20260507135933 | 39 | 289 | 0.0 | 0.0 | 0.05 | 0.19 | 0.12 | 90 | 1005.4 |
| 20260507134433 | 39 | 295 | 0.0 | 0.0 | 0.05 | 0.19 | 0.12 | 89 | 1005.6 |
| 20260507132933 | 39 | 293 | 0.0 | 0.0 | 0.01 | 0.15 | 0.08 | 88 | 1005.4 |
| 20260507131433 | 39 | 266 | 0.0 | 0.0 | 0.00 | 0.14 | 0.07 | 88 | 1005.0 |
| 20260507125933 | 39 | 273 | 0.0 | 0.0 | 0.00 | 0.14 | 0.07 | 86 | 1005.0 |
| 20260507124437 | 40 | 260 | 0.0 | 0.0 | 0.00 | 0.14 | 0.07 | 84 | 1005.0 |
| 20260507121435 | 40 | 271 | 0.0 | 0.0 | 0.00 | 0.14 | 0.07 | 82 | 1004.9 |
| 20260507115934 | 39 | 289 | 0.0 | 0.0 | 0.00 | 0.14 | 0.07 | 83 | 1004.8 |
| 20260507114434 | 39 | 285 | 0.0 | 0.0 | 0.00 | 0.14 | 0.07 | 83 | 1004.8 |
| 20260507112934 | 40 | 286 | 0.0 | 0.0 | 0.00 | 0.14 | 0.07 | 81 | 1004.7 |
| 20260507111434 | 42 | 293 | 0.0 | 0.0 | 0.00 | 0.14 | 0.07 | 78 | 1004.9 |
| 20260507105934 | 41 | 293 | 0.0 | 0.0 | 0.00 | 0.14 | 0.07 | 78 | 1005.0 |
| 20260507104436 | 42 | 289 | 0.0 | 0.0 | 0.00 | 0.14 | 0.07 | 78 | 1005.0 |
| 20260507102934 | 42 | 290 | 0.0 | 0.0 | 0.00 | 0.14 | 0.07 | 78 | 1004.8 |
| 20260507095934 | 42 | 291 | 0.0 | 0.0 | 0.00 | 0.14 | 0.07 | 77 | 1005.1 |
| 20260507094435 | 41 | 316 | 0.0 | 0.0 | 0.00 | 0.14 | 0.07 | 76 | 1005.1 |
| 20260507092934 | 41 | 332 | 0.0 | 0.0 | 0.00 | 0.14 | 0.07 | 76 | 1005.0 |
| 20260507091435 | 42 | 341 | 0.0 | 0.0 | 0.00 | 0.14 | 0.07 | 76 | 1004.9 |
| 20260507085934 | 42 | 349 | 0.0 | 0.0 | 0.01 | 0.14 | 0.07 | 77 | 1005.1 |
| 20260507084434 | 41 | 338 | 0.0 | 0.0 | 0.04 | 0.14 | 0.07 | 79 | 1005.3 |
| 20260507082934 | 39 | 243 | 0.0 | 0.0 | 0.05 | 0.14 | 0.07 | 83 | 1005.8 |
| 20260507081434 | 40 | 4 | 0.0 | 0.0 | 0.06 | 0.14 | 0.07 | 78 | 1005.5 |
| 20260507075934 | 39 | 311 | 0.0 | 0.0 | 0.05 | 0.13 | 0.06 | 86 | 1005.7 |
| 20260507074434 | 39 | 12 | 0.0 | 0.0 | 0.03 | 0.10 | 0.03 | 90 | 1006.6 |
| 20260507072934 | 40 | 37 | 0.0 | 0.0 | 0.02 | 0.09 | 0.02 | 86 | 1006.2 |
| 20260507071434 | 40 | 13 | 0.0 | 0.0 | 0.01 | 0.08 | 0.01 | 84 | 1006.1 |
| 20260507065935 | 40 | 307 | 0.0 | 0.0 | 0.01 | 0.08 | 0.01 | 86 | 1005.4 |
| 20260507064434 | 44 | 321 | 0.0 | 0.9 | 0.00 | 0.07 | 0.00 | 74 | 1005.2 |
| 20260507062934 | 44 | 306 | 0.0 | 0.0 | 0.00 | 0.07 | 0.07 | 74 | 1004.9 |
| 20260507061434 | 45 | 308 | 0.0 | 0.0 | 0.00 | 0.07 | 0.07 | 71 | 1005.4 |
| 20260507055934 | 45 | 343 | 0.0 | 0.0 | 0.00 | 0.07 | 0.07 | 71 | 1005.7 |
| 20260507054434 | 43 | 11 | 0.0 | 0.0 | 0.00 | 0.07 | 0.07 | 74 | 1006.0 |
| 20260507052934 | 42 | 34 | 0.0 | 0.0 | 0.00 | 0.07 | 0.07 | 77 | 1005.8 |
| 20260507045934 | 44 | 316 | 0.0 | 0.0 | 0.05 | 0.07 | 0.07 | 68 | 1005.6 |
| 20260507044434 | 42 | 324 | 0.0 | 0.0 | 0.07 | 0.07 | 0.07 | 86 | 1005.8 |
| 20260507042935 | 40 | 313 | 0.0 | 0.0 | 0.07 | 0.07 | 0.07 | 90 | 1005.9 |
| 20260507041434 | 39 | 287 | 0.0 | 0.0 | 0.07 | 0.07 | 0.07 | 92 | 1005.1 |
| 20260507040044 | 42 | 328 | 0.0 | 2.6 | 0.02 | 0.02 | 0.02 | 78 | 1006.2 |
| 20260507034441 | 47 | 303 | 0.0 | 0.0 | 0.00 | 0.00 | 0.00 | 68 | 1006.2 |
| 20260507032935 | 47 | 294 | 0.0 | 0.0 | 0.00 | 0.00 | 0.00 | 69 | 1005.8 |
| 20260507031435 | 46 | 304 | 0.0 | 0.0 | 0.00 | 0.00 | 0.00 | 66 | 1006.2 |
| 20260507025935 | 46 | 315 | 0.0 | 0.0 | 0.00 | 0.00 | 0.00 | 66 | 1006.5 |
| 20260507024435 | 47 | 291 | 0.0 | 0.0 | 0.00 | 0.00 | 0.00 | 65 | 1006.5 |
| 20260507022935 | 47 | 316 | 0.0 | 0.0 | 0.00 | 0.00 | 0.00 | 63 | 1006.7 |
| 20260507021435 | 46 | 306 | 0.0 | 0.0 | 0.00 | 0.00 | 0.00 | 63 | 1006.8 |
| 20260507015935 | 47 | 303 | 0.0 | 0.0 | 0.00 | 0.00 | 0.00 | 63 | 1006.5 |
| 20260507014435 | 47 | 305 | 0.0 | 0.0 | 0.00 | 0.00 | 0.00 | 62 | 1006.6 |